ENAN/ANX METAR and TAF weather

Enter ICAO airport designator
Station Type Date Time Source
ENAN METAR 2020/11/27 14:50 UTC NOAA

ENAN 271450Z 25014G27KT 210V280 9999 FEW039 SCT053 06/01 Q1012


Station Type Date Time Source
ENAN Decoded METAR 2020/11/27 14:50 UTC NOAA

Andoya, Norway (ENAN) 69-18N 016-09E 14M
Nov 27, 2020 - 09:50 AM EST / 2020.11.27 1450 UTC
Wind: from the WSW (250 degrees) at 16 MPH (14 KT) gusting to 31 MPH (27 KT) (direction variable):0
Visibility: greater than 7 mile(s):0
Sky conditions: partly cloudy
Temperature: 42 F (6 C)
Dew Point: 33 F (1 C)
Relative Humidity: 70%
Pressure (altimeter): 29.88 in. Hg (1012 hPa)
ob: ENAN 271450Z 25014G27KT 210V280 9999 FEW039 SCT053 06/01 Q1012
cycle: 15

Station Type Date Time Source
ENAN TAF 2020/11/27 12:57 UTC NOAA

TAF TAF ENAN 271100Z 2712/2812 22012KT 9999 FEW015 BKN030
TEMPO 2712/2714 21020G30KT RA

Example: see airport list